sensor_id;sensor_type;location;lat;lon;timestamp;temperature;humidity
8792;DHT22;4432;50.890;4.744;2023-07-08T00:01:54;17.60;99.90
8792;DHT22;4432;50.890;4.744;2023-07-08T00:04:20;17.60;99.90
8792;DHT22;4432;50.890;4.744;2023-07-08T00:06:46;17.50;99.90
8792;DHT22;4432;50.890;4.744;2023-07-08T00:09:11;17.50;99.90
8792;DHT22;4432;50.890;4.744;2023-07-08T00:11:37;17.40;99.90
8792;DHT22;4432;50.890;4.744;2023-07-08T00:14:03;17.40;99.90
8792;DHT22;4432;50.890;4.744;2023-07-08T00:16:29;17.30;99.90
8792;DHT22;4432;50.890;4.744;2023-07-08T00:18:55;17.30;99.90
8792;DHT22;4432;50.890;4.744;2023-07-08T00:21:21;17.30;99.90
8792;DHT22;4432;50.890;4.744;2023-07-08T00:23:48;17.30;99.90
8792;DHT22;4432;50.890;4.744;2023-07-08T00:26:24;17.20;99.90
8792;DHT22;4432;50.890;4.744;2023-07-08T00:28:51;17.20;99.90
8792;DHT22;4432;50.890;4.744;2023-07-08T00:31:16;17.10;99.90
8792;DHT22;4432;50.890;4.744;2023-07-08T00:33:42;17.00;99.90
8792;DHT22;4432;50.890;4.744;2023-07-08T00:36:14;16.90;99.90
8792;DHT22;4432;50.890;4.744;2023-07-08T00:38:41;16.80;99.90
8792;DHT22;4432;50.890;4.744;2023-07-08T00:41:20;16.80;99.90
8792;DHT22;4432;50.890;4.744;2023-07-08T00:43:54;16.70;99.90
8792;DHT22;4432;50.890;4.744;2023-07-08T00:52:20;16.60;99.90
8792;DHT22;4432;50.890;4.744;2023-07-08T00:54:49;16.70;99.90
8792;DHT22;4432;50.890;4.744;2023-07-08T00:57:15;16.70;99.90
8792;DHT22;4432;50.890;4.744;2023-07-08T00:59:55;16.70;99.90
8792;DHT22;4432;50.890;4.744;2023-07-08T01:02:25;16.80;99.90
8792;DHT22;4432;50.890;4.744;2023-07-08T01:07:25;16.80;99.90
8792;DHT22;4432;50.890;4.744;2023-07-08T01:09:57;16.80;99.90
8792;DHT22;4432;50.890;4.744;2023-07-08T01:12:34;16.80;99.90
8792;DHT22;4432;50.890;4.744;2023-07-08T01:15:02;16.70;99.90
8792;DHT22;4432;50.890;4.744;2023-07-08T01:17:29;16.70;99.90
8792;DHT22;4432;50.890;4.744;2023-07-08T01:19:59;16.60;99.90
8792;DHT22;4432;50.890;4.744;2023-07-08T01:22:26;16.60;99.90
8792;DHT22;4432;50.890;4.744;2023-07-08T01:24:58;16.50;99.90
8792;DHT22;4432;50.890;4.744;2023-07-08T01:27:30;16.50;99.90
8792;DHT22;4432;50.890;4.744;2023-07-08T01:29:58;16.50;99.90
8792;DHT22;4432;50.890;4.744;2023-07-08T01:32:24;16.40;99.90
8792;DHT22;4432;50.890;4.744;2023-07-08T01:34:51;16.40;99.90
8792;DHT22;4432;50.890;4.744;2023-07-08T01:37:36;16.30;99.90
8792;DHT22;4432;50.890;4.744;2023-07-08T01:40:29;16.30;99.90
8792;DHT22;4432;50.890;4.744;2023-07-08T01:42:56;16.30;99.90
8792;DHT22;4432;50.890;4.744;2023-07-08T01:45:25;16.30;99.90
8792;DHT22;4432;50.890;4.744;2023-07-08T01:47:56;16.20;99.90
8792;DHT22;4432;50.890;4.744;2023-07-08T01:50:25;16.20;99.90
8792;DHT22;4432;50.890;4.744;2023-07-08T01:52:53;16.20;99.90
8792;DHT22;4432;50.890;4.744;2023-07-08T01:55:27;16.20;99.90
8792;DHT22;4432;50.890;4.744;2023-07-08T01:57:56;16.10;99.90
8792;DHT22;4432;50.890;4.744;2023-07-08T02:00:22;16.10;99.90
8792;DHT22;4432;50.890;4.744;2023-07-08T02:02:49;16.00;99.90
8792;DHT22;4432;50.890;4.744;2023-07-08T02:05:15;16.00;99.90
8792;DHT22;4432;50.890;4.744;2023-07-08T02:07:41;15.90;99.90
8792;DHT22;4432;50.890;4.744;2023-07-08T02:10:08;15.90;99.90
8792;DHT22;4432;50.890;4.744;2023-07-08T02:12:34;15.90;99.90
8792;DHT22;4432;50.890;4.744;2023-07-08T02:15:00;15.90;99.90
8792;DHT22;4432;50.890;4.744;2023-07-08T02:17:26;16.00;99.90
8792;DHT22;4432;50.890;4.744;2023-07-08T02:19:56;15.90;99.90
8792;DHT22;4432;50.890;4.744;2023-07-08T02:22:21;15.80;99.90
8792;DHT22;4432;50.890;4.744;2023-07-08T02:24:47;15.70;99.90
8792;DHT22;4432;50.890;4.744;2023-07-08T02:27:14;15.70;99.90
8792;DHT22;4432;50.890;4.744;2023-07-08T02:29:40;15.70;99.90
8792;DHT22;4432;50.890;4.744;2023-07-08T02:32:06;15.60;99.90
8792;DHT22;4432;50.890;4.744;2023-07-08T02:34:32;15.60;99.90
8792;DHT22;4432;50.890;4.744;2023-07-08T02:36:58;15.50;99.90
8792;DHT22;4432;50.890;4.744;2023-07-08T02:39:24;15.50;99.90
8792;DHT22;4432;50.890;4.744;2023-07-08T02:41:49;15.50;99.90
8792;DHT22;4432;50.890;4.744;2023-07-08T02:44:15;15.50;99.90
8792;DHT22;4432;50.890;4.744;2023-07-08T02:46:41;15.40;99.90
8792;DHT22;4432;50.890;4.744;2023-07-08T02:49:07;15.40;99.90
8792;DHT22;4432;50.890;4.744;2023-07-08T02:51:33;15.40;99.90
8792;DHT22;4432;50.890;4.744;2023-07-08T02:53:58;15.50;99.90
8792;DHT22;4432;50.890;4.744;2023-07-08T02:56:24;15.50;99.90
8792;DHT22;4432;50.890;4.744;2023-07-08T02:58:52;15.50;99.90
8792;DHT22;4432;50.890;4.744;2023-07-08T03:01:18;15.50;99.90
8792;DHT22;4432;50.890;4.744;2023-07-08T03:03:47;15.50;99.90
8792;DHT22;4432;50.890;4.744;2023-07-08T03:06:13;15.60;99.90
8792;DHT22;4432;50.890;4.744;2023-07-08T03:08:39;15.70;99.90
8792;DHT22;4432;50.890;4.744;2023-07-08T03:11:06;15.70;99.90
8792;DHT22;4432;50.890;4.744;2023-07-08T03:13:33;15.80;99.90
8792;DHT22;4432;50.890;4.744;2023-07-08T03:16:00;15.90;99.90
8792;DHT22;4432;50.890;4.744;2023-07-08T03:18:27;15.90;99.90
8792;DHT22;4432;50.890;4.744;2023-07-08T03:20:54;15.80;99.90
8792;DHT22;4432;50.890;4.744;2023-07-08T03:23:22;15.80;99.90
8792;DHT22;4432;50.890;4.744;2023-07-08T03:25:49;15.70;99.90
8792;DHT22;4432;50.890;4.744;2023-07-08T03:28:15;15.80;99.90
8792;DHT22;4432;50.890;4.744;2023-07-08T03:30:41;15.80;99.90
8792;DHT22;4432;50.890;4.744;2023-07-08T03:33:09;15.80;99.90
8792;DHT22;4432;50.890;4.744;2023-07-08T03:35:35;15.80;99.90
8792;DHT22;4432;50.890;4.744;2023-07-08T03:38:02;15.80;99.90
8792;DHT22;4432;50.890;4.744;2023-07-08T03:40:28;15.80;99.90
8792;DHT22;4432;50.890;4.744;2023-07-08T03:42:54;15.80;99.90
8792;DHT22;4432;50.890;4.744;2023-07-08T03:45:20;15.90;99.90
8792;DHT22;4432;50.890;4.744;2023-07-08T03:47:46;15.90;99.90
8792;DHT22;4432;50.890;4.744;2023-07-08T03:50:23;15.80;99.90
8792;DHT22;4432;50.890;4.744;2023-07-08T03:52:52;15.70;99.90
8792;DHT22;4432;50.890;4.744;2023-07-08T03:55:19;15.60;99.90
8792;DHT22;4432;50.890;4.744;2023-07-08T03:57:45;15.60;99.90
8792;DHT22;4432;50.890;4.744;2023-07-08T04:00:12;15.60;99.90
8792;DHT22;4432;50.890;4.744;2023-07-08T04:02:39;15.60;99.90
8792;DHT22;4432;50.890;4.744;2023-07-08T04:05:05;15.60;99.90
8792;DHT22;4432;50.890;4.744;2023-07-08T04:07:32;15.60;99.90
8792;DHT22;4432;50.890;4.744;2023-07-08T04:09:57;15.60;99.90
8792;DHT22;4432;50.890;4.744;2023-07-08T04:12:23;15.60;99.90
8792;DHT22;4432;50.890;4.744;2023-07-08T04:14:49;15.70;99.90
8792;DHT22;4432;50.890;4.744;2023-07-08T04:17:15;15.70;99.90
8792;DHT22;4432;50.890;4.744;2023-07-08T04:19:43;15.80;99.90
8792;DHT22;4432;50.890;4.744;2023-07-08T04:22:10;15.90;99.90
8792;DHT22;4432;50.890;4.744;2023-07-08T04:24:36;15.90;99.90
8792;DHT22;4432;50.890;4.744;2023-07-08T04:27:03;15.90;99.90
8792;DHT22;4432;50.890;4.744;2023-07-08T04:29:29;16.00;99.90
8792;DHT22;4432;50.890;4.744;2023-07-08T04:31:54;16.10;99.90
8792;DHT22;4432;50.890;4.744;2023-07-08T04:34:20;16.20;99.90
8792;DHT22;4432;50.890;4.744;2023-07-08T04:36:46;16.20;99.90
8792;DHT22;4432;50.890;4.744;2023-07-08T04:39:12;16.20;99.90
8792;DHT22;4432;50.890;4.744;2023-07-08T04:41:39;16.20;99.90
8792;DHT22;4432;50.890;4.744;2023-07-08T04:44:07;16.20;99.90
8792;DHT22;4432;50.890;4.744;2023-07-08T04:46:40;16.30;99.90
8792;DHT22;4432;50.890;4.744;2023-07-08T04:49:07;16.40;99.90
8792;DHT22;4432;50.890;4.744;2023-07-08T04:51:36;16.50;99.90
8792;DHT22;4432;50.890;4.744;2023-07-08T04:54:02;16.60;99.90
8792;DHT22;4432;50.890;4.744;2023-07-08T04:56:55;16.70;99.90
8792;DHT22;4432;50.890;4.744;2023-07-08T04:59:23;16.90;99.90
8792;DHT22;4432;50.890;4.744;2023-07-08T05:01:50;17.00;99.90
8792;DHT22;4432;50.890;4.744;2023-07-08T05:04:17;17.10;99.90
8792;DHT22;4432;50.890;4.744;2023-07-08T05:06:43;17.10;99.90
8792;DHT22;4432;50.890;4.744;2023-07-08T05:09:09;17.30;99.90
8792;DHT22;4432;50.890;4.744;2023-07-08T05:11:36;17.40;99.90
8792;DHT22;4432;50.890;4.744;2023-07-08T05:14:03;17.50;99.90
8792;DHT22;4432;50.890;4.744;2023-07-08T05:16:29;17.60;99.90
8792;DHT22;4432;50.890;4.744;2023-07-08T05:18:55;17.70;99.90
8792;DHT22;4432;50.890;4.744;2023-07-08T05:21:21;17.80;99.90
8792;DHT22;4432;50.890;4.744;2023-07-08T05:23:48;17.90;99.90
8792;DHT22;4432;50.890;4.744;2023-07-08T05:26:17;18.00;99.90
8792;DHT22;4432;50.890;4.744;2023-07-08T05:28:43;18.10;99.90
8792;DHT22;4432;50.890;4.744;2023-07-08T05:31:09;18.20;99.90
8792;DHT22;4432;50.890;4.744;2023-07-08T05:33:34;18.40;99.90
8792;DHT22;4432;50.890;4.744;2023-07-08T05:36:00;18.50;99.90
8792;DHT22;4432;50.890;4.744;2023-07-08T05:38:27;18.60;99.90
8792;DHT22;4432;50.890;4.744;2023-07-08T05:40:57;18.70;99.90
8792;DHT22;4432;50.890;4.744;2023-07-08T05:43:24;18.90;99.90
8792;DHT22;4432;50.890;4.744;2023-07-08T05:45:50;19.00;99.90
8792;DHT22;4432;50.890;4.744;2023-07-08T05:48:16;19.00;99.90
8792;DHT22;4432;50.890;4.744;2023-07-08T05:50:42;19.20;99.90
8792;DHT22;4432;50.890;4.744;2023-07-08T05:53:10;19.30;99.90
8792;DHT22;4432;50.890;4.744;2023-07-08T05:55:36;19.50;99.90
8792;DHT22;4432;50.890;4.744;2023-07-08T05:58:02;19.70;99.90
8792;DHT22;4432;50.890;4.744;2023-07-08T06:00:28;19.80;99.90
8792;DHT22;4432;50.890;4.744;2023-07-08T06:02:54;19.90;99.90
8792;DHT22;4432;50.890;4.744;2023-07-08T06:05:19;20.10;99.90
8792;DHT22;4432;50.890;4.744;2023-07-08T06:07:45;20.30;99.90
8792;DHT22;4432;50.890;4.744;2023-07-08T06:10:11;20.40;99.90
8792;DHT22;4432;50.890;4.744;2023-07-08T06:12:37;20.50;99.90
8792;DHT22;4432;50.890;4.744;2023-07-08T06:15:03;20.60;99.90
8792;DHT22;4432;50.890;4.744;2023-07-08T06:17:29;20.60;99.90
8792;DHT22;4432;50.890;4.744;2023-07-08T06:19:54;20.70;99.90
8792;DHT22;4432;50.890;4.744;2023-07-08T06:22:20;20.80;99.90
8792;DHT22;4432;50.890;4.744;2023-07-08T06:24:46;21.00;99.90
8792;DHT22;4432;50.890;4.744;2023-07-08T06:27:13;21.10;99.90
8792;DHT22;4432;50.890;4.744;2023-07-08T06:29:39;21.20;99.90
8792;DHT22;4432;50.890;4.744;2023-07-08T06:32:05;21.40;99.90
8792;DHT22;4432;50.890;4.744;2023-07-08T06:34:32;21.60;99.90
8792;DHT22;4432;50.890;4.744;2023-07-08T06:36:57;21.70;99.90
8792;DHT22;4432;50.890;4.744;2023-07-08T06:39:23;21.90;99.90
8792;DHT22;4432;50.890;4.744;2023-07-08T06:41:49;22.00;99.90
8792;DHT22;4432;50.890;4.744;2023-07-08T06:44:15;22.10;99.90
8792;DHT22;4432;50.890;4.744;2023-07-08T06:46:41;22.30;99.90
8792;DHT22;4432;50.890;4.744;2023-07-08T06:49:06;22.40;99.90
8792;DHT22;4432;50.890;4.744;2023-07-08T06:51:37;22.50;99.90
8792;DHT22;4432;50.890;4.744;2023-07-08T06:54:03;22.60;99.90
8792;DHT22;4432;50.890;4.744;2023-07-08T06:56:30;22.80;99.90
8792;DHT22;4432;50.890;4.744;2023-07-08T06:58:56;22.90;99.90
8792;DHT22;4432;50.890;4.744;2023-07-08T07:01:22;23.10;99.90
8792;DHT22;4432;50.890;4.744;2023-07-08T07:03:48;23.20;99.90
8792;DHT22;4432;50.890;4.744;2023-07-08T07:06:13;23.30;99.90
8792;DHT22;4432;50.890;4.744;2023-07-08T07:08:39;23.40;99.90
8792;DHT22;4432;50.890;4.744;2023-07-08T07:11:06;23.50;99.90
8792;DHT22;4432;50.890;4.744;2023-07-08T07:13:32;23.70;99.90
8792;DHT22;4432;50.890;4.744;2023-07-08T07:15:58;23.80;99.90
8792;DHT22;4432;50.890;4.744;2023-07-08T07:18:24;23.90;99.90
8792;DHT22;4432;50.890;4.744;2023-07-08T07:20:52;24.00;99.90
8792;DHT22;4432;50.890;4.744;2023-07-08T07:23:19;24.00;99.90
8792;DHT22;4432;50.890;4.744;2023-07-08T07:25:48;24.10;99.90
8792;DHT22;4432;50.890;4.744;2023-07-08T07:28:14;24.30;99.90
8792;DHT22;4432;50.890;4.744;2023-07-08T07:30:43;24.30;99.90
8792;DHT22;4432;50.890;4.744;2023-07-08T07:33:09;24.40;99.90
8792;DHT22;4432;50.890;4.744;2023-07-08T07:35:35;24.50;99.90
8792;DHT22;4432;50.890;4.744;2023-07-08T07:38:01;24.60;99.90
8792;DHT22;4432;50.890;4.744;2023-07-08T07:40:27;24.80;99.90
8792;DHT22;4432;50.890;4.744;2023-07-08T07:42:53;24.90;99.90
8792;DHT22;4432;50.890;4.744;2023-07-08T07:45:18;25.10;99.90
8792;DHT22;4432;50.890;4.744;2023-07-08T07:47:48;25.10;99.90
8792;DHT22;4432;50.890;4.744;2023-07-08T07:50:13;25.20;99.90
8792;DHT22;4432;50.890;4.744;2023-07-08T07:52:39;25.40;99.90
8792;DHT22;4432;50.890;4.744;2023-07-08T07:55:05;25.50;99.90
8792;DHT22;4432;50.890;4.744;2023-07-08T07:57:31;25.60;99.90
8792;DHT22;4432;50.890;4.744;2023-07-08T07:59:57;25.80;99.70
8792;DHT22;4432;50.890;4.744;2023-07-08T08:02:22;25.90;98.80
8792;DHT22;4432;50.890;4.744;2023-07-08T08:04:48;25.90;99.40
8792;DHT22;4432;50.890;4.744;2023-07-08T08:07:14;26.00;98.60
8792;DHT22;4432;50.890;4.744;2023-07-08T08:09:40;25.90;99.70
8792;DHT22;4432;50.890;4.744;2023-07-08T08:12:08;26.10;99.20
8792;DHT22;4432;50.890;4.744;2023-07-08T08:14:34;26.20;98.90
8792;DHT22;4432;50.890;4.744;2023-07-08T08:17:00;26.40;98.70
8792;DHT22;4432;50.890;4.744;2023-07-08T08:19:26;26.40;98.30
8792;DHT22;4432;50.890;4.744;2023-07-08T08:21:52;26.50;98.00
8792;DHT22;4432;50.890;4.744;2023-07-08T08:24:18;26.70;96.70
8792;DHT22;4432;50.890;4.744;2023-07-08T08:26:43;26.70;96.70
8792;DHT22;4432;50.890;4.744;2023-07-08T08:29:09;26.90;95.60
8792;DHT22;4432;50.890;4.744;2023-07-08T08:31:35;27.00;96.20
8792;DHT22;4432;50.890;4.744;2023-07-08T08:34:01;27.10;94.70
8792;DHT22;4432;50.890;4.744;2023-07-08T08:36:26;27.10;95.00
8792;DHT22;4432;50.890;4.744;2023-07-08T08:38:52;27.10;93.50
8792;DHT22;4432;50.890;4.744;2023-07-08T08:41:31;27.20;95.00
8792;DHT22;4432;50.890;4.744;2023-07-08T08:43:58;27.30;93.60
8792;DHT22;4432;50.890;4.744;2023-07-08T08:49:43;27.20;92.90
8792;DHT22;4432;50.890;4.744;2023-07-08T08:52:10;27.40;96.20
8792;DHT22;4432;50.890;4.744;2023-07-08T08:54:36;27.50;94.10
8792;DHT22;4432;50.890;4.744;2023-07-08T08:57:11;27.70;96.00
8792;DHT22;4432;50.890;4.744;2023-07-08T08:59:54;27.70;93.00
8792;DHT22;4432;50.890;4.744;2023-07-08T09:02:42;27.70;93.40
8792;DHT22;4432;50.890;4.744;2023-07-08T09:05:14;27.80;93.90
8792;DHT22;4432;50.890;4.744;2023-07-08T09:08:06;27.80;92.60
8792;DHT22;4432;50.890;4.744;2023-07-08T09:10:55;28.30;93.60
8792;DHT22;4432;50.890;4.744;2023-07-08T09:13:36;29.10;90.80
8792;DHT22;4432;50.890;4.744;2023-07-08T09:26:55;31.30;63.70
8792;DHT22;4432;50.890;4.744;2023-07-08T09:29:24;31.30;60.50
8792;DHT22;4432;50.890;4.744;2023-07-08T09:31:50;31.60;59.00
8792;DHT22;4432;50.890;4.744;2023-07-08T09:34:21;31.70;53.70
8792;DHT22;4432;50.890;4.744;2023-07-08T09:36:49;32.00;55.10
8792;DHT22;4432;50.890;4.744;2023-07-08T09:39:20;31.90;53.60
8792;DHT22;4432;50.890;4.744;2023-07-08T09:41:48;32.40;49.60
8792;DHT22;4432;50.890;4.744;2023-07-08T09:44:26;32.70;47.50
8792;DHT22;4432;50.890;4.744;2023-07-08T09:46:56;33.10;41.30
8792;DHT22;4432;50.890;4.744;2023-07-08T09:49:24;33.50;34.30
8792;DHT22;4432;50.890;4.744;2023-07-08T09:51:51;33.40;37.90
8792;DHT22;4432;50.890;4.744;2023-07-08T09:54:22;33.20;36.00
8792;DHT22;4432;50.890;4.744;2023-07-08T09:59:23;33.40;32.50
8792;DHT22;4432;50.890;4.744;2023-07-08T10:01:49;33.90;30.10
8792;DHT22;4432;50.890;4.744;2023-07-08T10:04:18;34.40;27.80
8792;DHT22;4432;50.890;4.744;2023-07-08T10:06:44;34.50;25.90
8792;DHT22;4432;50.890;4.744;2023-07-08T10:09:18;34.60;24.70
8792;DHT22;4432;50.890;4.744;2023-07-08T10:11:56;34.50;22.90
8792;DHT22;4432;50.890;4.744;2023-07-08T10:17:31;33.50;27.60
8792;DHT22;4432;50.890;4.744;2023-07-08T10:19:59;33.60;26.30
8792;DHT22;4432;50.890;4.744;2023-07-08T10:22:57;34.10;22.90
8792;DHT22;4432;50.890;4.744;2023-07-08T10:25:27;33.90;21.30
8792;DHT22;4432;50.890;4.744;2023-07-08T10:30:36;33.30;23.30
8792;DHT22;4432;50.890;4.744;2023-07-08T10:35:35;33.30;23.70
8792;DHT22;4432;50.890;4.744;2023-07-08T10:54:43;33.10;21.80
8792;DHT22;4432;50.890;4.744;2023-07-08T10:57:33;32.90;23.50
8792;DHT22;4432;50.890;4.744;2023-07-08T11:05:40;32.90;22.90
8792;DHT22;4432;50.890;4.744;2023-07-08T11:08:35;33.00;23.60
8792;DHT22;4432;50.890;4.744;2023-07-08T11:13:45;33.30;22.50
8792;DHT22;4432;50.890;4.744;2023-07-08T11:16:36;33.30;21.10
8792;DHT22;4432;50.890;4.744;2023-07-08T11:21:51;33.40;19.90
8792;DHT22;4432;50.890;4.744;2023-07-08T11:27:07;33.40;18.20
8792;DHT22;4432;50.890;4.744;2023-07-08T11:32:00;33.70;18.80
8792;DHT22;4432;50.890;4.744;2023-07-08T11:34:26;33.70;18.00
8792;DHT22;4432;50.890;4.744;2023-07-08T11:36:55;33.80;19.90
8792;DHT22;4432;50.890;4.744;2023-07-08T11:39:28;33.80;20.80
8792;DHT22;4432;50.890;4.744;2023-07-08T11:42:25;33.30;18.60
8792;DHT22;4432;50.890;4.744;2023-07-08T11:44:55;33.30;20.30
8792;DHT22;4432;50.890;4.744;2023-07-08T11:47:44;33.30;19.10
8792;DHT22;4432;50.890;4.744;2023-07-08T11:50:30;33.40;21.10
8792;DHT22;4432;50.890;4.744;2023-07-08T11:53:03;33.10;19.30
8792;DHT22;4432;50.890;4.744;2023-07-08T11:55:56;32.70;20.40
8792;DHT22;4432;50.890;4.744;2023-07-08T11:58:25;32.80;19.60
8792;DHT22;4432;50.890;4.744;2023-07-08T12:01:19;32.80;19.10
8792;DHT22;4432;50.890;4.744;2023-07-08T12:04:24;33.30;22.10
8792;DHT22;4432;50.890;4.744;2023-07-08T12:07:06;33.60;20.40
8792;DHT22;4432;50.890;4.744;2023-07-08T12:09:44;33.50;20.20
8792;DHT22;4432;50.890;4.744;2023-07-08T12:12:24;33.60;20.70
8792;DHT22;4432;50.890;4.744;2023-07-08T12:14:52;33.50;19.10
8792;DHT22;4432;50.890;4.744;2023-07-08T12:17:19;33.70;20.60
8792;DHT22;4432;50.890;4.744;2023-07-08T12:19:47;33.80;19.80
8792;DHT22;4432;50.890;4.744;2023-07-08T12:22:14;34.10;22.90
8792;DHT22;4432;50.890;4.744;2023-07-08T12:24:40;34.00;20.70
8792;DHT22;4432;50.890;4.744;2023-07-08T12:27:09;34.00;20.80
8792;DHT22;4432;50.890;4.744;2023-07-08T12:29:35;34.30;20.00
8792;DHT22;4432;50.890;4.744;2023-07-08T12:32:01;34.50;21.90
8792;DHT22;4432;50.890;4.744;2023-07-08T12:34:28;34.50;20.90
8792;DHT22;4432;50.890;4.744;2023-07-08T12:36:55;34.30;20.60
8792;DHT22;4432;50.890;4.744;2023-07-08T12:39:21;34.30;19.20
8792;DHT22;4432;50.890;4.744;2023-07-08T12:41:47;34.20;20.90
8792;DHT22;4432;50.890;4.744;2023-07-08T12:44:22;34.40;21.70
8792;DHT22;4432;50.890;4.744;2023-07-08T12:46:51;34.40;19.80
8792;DHT22;4432;50.890;4.744;2023-07-08T12:49:19;34.00;19.50
8792;DHT22;4432;50.890;4.744;2023-07-08T12:51:46;33.60;20.80
8792;DHT22;4432;50.890;4.744;2023-07-08T12:54:13;33.50;21.60
8792;DHT22;4432;50.890;4.744;2023-07-08T12:56:42;32.90;21.40
8792;DHT22;4432;50.890;4.744;2023-07-08T12:59:08;32.60;22.00
8792;DHT22;4432;50.890;4.744;2023-07-08T13:01:37;32.40;23.20
8792;DHT22;4432;50.890;4.744;2023-07-08T13:04:10;31.40;26.30
8792;DHT22;4432;50.890;4.744;2023-07-08T13:06:38;30.70;26.90
8792;DHT22;4432;50.890;4.744;2023-07-08T13:11:46;29.40;26.90
8792;DHT22;4432;50.890;4.744;2023-07-08T13:14:14;29.00;27.20
8792;DHT22;4432;50.890;4.744;2023-07-08T13:16:40;28.80;25.20
8792;DHT22;4432;50.890;4.744;2023-07-08T13:19:10;28.80;24.40
8792;DHT22;4432;50.890;4.744;2023-07-08T13:21:37;28.70;24.30
8792;DHT22;4432;50.890;4.744;2023-07-08T13:24:08;28.50;26.20
8792;DHT22;4432;50.890;4.744;2023-07-08T13:26:35;28.30;27.40
8792;DHT22;4432;50.890;4.744;2023-07-08T13:29:09;28.30;28.30
8792;DHT22;4432;50.890;4.744;2023-07-08T13:31:38;28.20;27.60
8792;DHT22;4432;50.890;4.744;2023-07-08T13:34:15;28.10;27.70
8792;DHT22;4432;50.890;4.744;2023-07-08T13:36:43;28.10;29.40
8792;DHT22;4432;50.890;4.744;2023-07-08T13:39:19;28.10;32.10
8792;DHT22;4432;50.890;4.744;2023-07-08T13:41:47;28.10;31.20
8792;DHT22;4432;50.890;4.744;2023-07-08T13:44:13;28.00;31.50
8792;DHT22;4432;50.890;4.744;2023-07-08T13:46:45;28.10;34.60
8792;DHT22;4432;50.890;4.744;2023-07-08T13:49:30;28.30;32.20
8792;DHT22;4432;50.890;4.744;2023-07-08T13:52:08;28.60;34.80
8792;DHT22;4432;50.890;4.744;2023-07-08T13:54:41;29.00;34.10
8792;DHT22;4432;50.890;4.744;2023-07-08T13:57:16;29.30;37.00
8792;DHT22;4432;50.890;4.744;2023-07-08T13:59:43;29.80;36.50
8792;DHT22;4432;50.890;4.744;2023-07-08T14:02:18;30.00;33.90
8792;DHT22;4432;50.890;4.744;2023-07-08T14:04:45;30.20;33.50
8792;DHT22;4432;50.890;4.744;2023-07-08T14:07:21;30.30;36.40
8792;DHT22;4432;50.890;4.744;2023-07-08T14:09:47;30.60;35.60
8792;DHT22;4432;50.890;4.744;2023-07-08T14:12:13;30.80;36.30
8792;DHT22;4432;50.890;4.744;2023-07-08T14:14:39;30.90;36.20
8792;DHT22;4432;50.890;4.744;2023-07-08T14:17:09;31.20;35.90
8792;DHT22;4432;50.890;4.744;2023-07-08T14:19:37;31.40;33.40
8792;DHT22;4432;50.890;4.744;2023-07-08T14:24:39;31.40;38.70
8792;DHT22;4432;50.890;4.744;2023-07-08T14:27:06;31.00;39.10
8792;DHT22;4432;50.890;4.744;2023-07-08T14:29:37;30.60;40.60
8792;DHT22;4432;50.890;4.744;2023-07-08T14:32:04;30.50;38.80
8792;DHT22;4432;50.890;4.744;2023-07-08T14:34:30;30.50;37.90
8792;DHT22;4432;50.890;4.744;2023-07-08T14:36:57;30.60;36.80
8792;DHT22;4432;50.890;4.744;2023-07-08T14:39:23;30.70;35.00
8792;DHT22;4432;50.890;4.744;2023-07-08T14:41:50;30.80;33.30
8792;DHT22;4432;50.890;4.744;2023-07-08T14:44:26;30.90;32.10
8792;DHT22;4432;50.890;4.744;2023-07-08T14:46:55;31.00;31.80
8792;DHT22;4432;50.890;4.744;2023-07-08T14:49:23;31.00;31.70
8792;DHT22;4432;50.890;4.744;2023-07-08T14:51:50;31.30;31.00
8792;DHT22;4432;50.890;4.744;2023-07-08T14:54:18;31.60;31.50
8792;DHT22;4432;50.890;4.744;2023-07-08T14:56:44;31.80;30.00
8792;DHT22;4432;50.890;4.744;2023-07-08T14:59:19;32.20;29.50
8792;DHT22;4432;50.890;4.744;2023-07-08T15:01:46;32.50;28.50
8792;DHT22;4432;50.890;4.744;2023-07-08T15:04:14;32.70;28.10
8792;DHT22;4432;50.890;4.744;2023-07-08T15:06:44;32.70;25.20
8792;DHT22;4432;50.890;4.744;2023-07-08T15:09:11;32.80;24.60
8792;DHT22;4432;50.890;4.744;2023-07-08T15:11:38;32.80;21.60
8792;DHT22;4432;50.890;4.744;2023-07-08T15:14:09;32.50;23.30
8792;DHT22;4432;50.890;4.744;2023-07-08T15:16:40;32.90;24.90
8792;DHT22;4432;50.890;4.744;2023-07-08T15:19:12;32.50;23.00
8792;DHT22;4432;50.890;4.744;2023-07-08T15:21:39;32.70;24.80
8792;DHT22;4432;50.890;4.744;2023-07-08T15:24:09;32.90;24.30
8792;DHT22;4432;50.890;4.744;2023-07-08T15:26:38;32.90;23.50
8792;DHT22;4432;50.890;4.744;2023-07-08T15:29:04;32.60;23.40
8792;DHT22;4432;50.890;4.744;2023-07-08T15:31:32;32.60;22.50
8792;DHT22;4432;50.890;4.744;2023-07-08T15:33:59;32.40;22.90
8792;DHT22;4432;50.890;4.744;2023-07-08T15:36:25;32.20;24.40
8792;DHT22;4432;50.890;4.744;2023-07-08T15:38:50;32.10;23.50
8792;DHT22;4432;50.890;4.744;2023-07-08T15:41:23;32.00;25.60
8792;DHT22;4432;50.890;4.744;2023-07-08T15:43:52;32.20;26.00
8792;DHT22;4432;50.890;4.744;2023-07-08T15:46:18;32.10;27.30
8792;DHT22;4432;50.890;4.744;2023-07-08T15:48:44;31.90;29.40
8792;DHT22;4432;50.890;4.744;2023-07-08T15:51:17;31.60;29.60
8792;DHT22;4432;50.890;4.744;2023-07-08T15:53:44;31.70;31.10
8792;DHT22;4432;50.890;4.744;2023-07-08T15:56:15;31.90;30.30
8792;DHT22;4432;50.890;4.744;2023-07-08T15:58:44;31.90;33.90
8792;DHT22;4432;50.890;4.744;2023-07-08T16:01:19;31.90;32.90
8792;DHT22;4432;50.890;4.744;2023-07-08T16:03:45;32.00;32.30
8792;DHT22;4432;50.890;4.744;2023-07-08T16:06:11;31.90;34.50
8792;DHT22;4432;50.890;4.744;2023-07-08T16:08:37;31.70;34.80
8792;DHT22;4432;50.890;4.744;2023-07-08T16:11:09;31.60;34.30
8792;DHT22;4432;50.890;4.744;2023-07-08T16:13:37;31.70;35.80
8792;DHT22;4432;50.890;4.744;2023-07-08T16:16:03;31.60;36.30
8792;DHT22;4432;50.890;4.744;2023-07-08T16:18:29;31.80;35.70
8792;DHT22;4432;50.890;4.744;2023-07-08T16:20:55;32.00;35.70
8792;DHT22;4432;50.890;4.744;2023-07-08T16:23:21;32.00;35.30
8792;DHT22;4432;50.890;4.744;2023-07-08T16:25:49;32.00;34.40
8792;DHT22;4432;50.890;4.744;2023-07-08T16:28:33;31.80;35.60
8792;DHT22;4432;50.890;4.744;2023-07-08T16:31:00;31.80;35.90
8792;DHT22;4432;50.890;4.744;2023-07-08T16:33:26;31.80;36.30
8792;DHT22;4432;50.890;4.744;2023-07-08T16:35:52;31.80;34.40
8792;DHT22;4432;50.890;4.744;2023-07-08T16:38:17;31.90;34.40
8792;DHT22;4432;50.890;4.744;2023-07-08T16:40:43;31.90;34.20
8792;DHT22;4432;50.890;4.744;2023-07-08T16:43:30;31.80;35.70
8792;DHT22;4432;50.890;4.744;2023-07-08T16:45:57;31.60;34.30
8792;DHT22;4432;50.890;4.744;2023-07-08T16:48:23;31.40;35.20
8792;DHT22;4432;50.890;4.744;2023-07-08T16:50:49;31.30;36.40
8792;DHT22;4432;50.890;4.744;2023-07-08T16:53:16;31.30;36.40
8792;DHT22;4432;50.890;4.744;2023-07-08T16:55:41;31.30;36.20
8792;DHT22;4432;50.890;4.744;2023-07-08T16:58:09;31.30;36.70
8792;DHT22;4432;50.890;4.744;2023-07-08T17:00:36;31.40;38.20
8792;DHT22;4432;50.890;4.744;2023-07-08T17:03:03;31.50;39.60
8792;DHT22;4432;50.890;4.744;2023-07-08T17:05:32;31.60;39.70
8792;DHT22;4432;50.890;4.744;2023-07-08T17:07:59;31.60;38.30
8792;DHT22;4432;50.890;4.744;2023-07-08T17:10:25;31.70;38.60
8792;DHT22;4432;50.890;4.744;2023-07-08T17:12:52;31.80;40.30
8792;DHT22;4432;50.890;4.744;2023-07-08T17:15:29;31.70;39.80
8792;DHT22;4432;50.890;4.744;2023-07-08T17:17:58;31.50;39.00
8792;DHT22;4432;50.890;4.744;2023-07-08T17:20:34;31.50;39.60
8792;DHT22;4432;50.890;4.744;2023-07-08T17:23:02;31.60;40.00
8792;DHT22;4432;50.890;4.744;2023-07-08T17:25:33;31.60;41.70